createdAt,value
2023-03-25T00:00:39.685Z,8.80
2023-03-25T00:04:21.787Z,8.80
2023-03-25T00:08:04.101Z,8.90
2023-03-25T00:11:46.067Z,8.90
2023-03-25T00:15:30.170Z,8.90
2023-03-25T00:19:12.055Z,9.00
2023-03-25T00:22:54.404Z,9.00
2023-03-25T00:26:42.658Z,9.00
2023-03-25T00:30:24.609Z,8.90
2023-03-25T00:34:06.957Z,8.90
2023-03-25T00:37:52.486Z,8.90
2023-03-25T00:41:37.116Z,8.80
2023-03-25T00:45:19.596Z,8.70
2023-03-25T00:49:01.628Z,8.70
2023-03-25T00:52:43.628Z,8.70
2023-03-25T00:56:25.556Z,8.70
2023-03-25T01:00:11.425Z,8.60
2023-03-25T01:04:00.866Z,8.60
2023-03-25T01:07:43.012Z,8.60
2023-03-25T01:11:28.494Z,8.60
2023-03-25T01:15:11.127Z,8.70
2023-03-25T01:18:53.834Z,8.70
2023-03-25T01:22:35.985Z,8.70
2023-03-25T01:26:18.349Z,8.70
2023-03-25T01:30:00.533Z,8.80
2023-03-25T01:33:43.085Z,8.70
2023-03-25T01:37:25.779Z,8.80
2023-03-25T01:41:08.566Z,8.80
2023-03-25T01:44:53.287Z,8.90
2023-03-25T01:48:40.699Z,8.90
2023-03-25T01:52:27.595Z,9.00
2023-03-25T01:56:13.694Z,9.10
2023-03-25T01:59:56.131Z,9.10
2023-03-25T02:03:38.787Z,9.10
2023-03-25T02:07:20.871Z,9.20
2023-03-25T02:11:02.786Z,9.20
2023-03-25T02:14:44.717Z,9.20
2023-03-25T02:18:58.434Z,9.20
2023-03-25T02:22:42.135Z,9.20
2023-03-25T02:26:43.259Z,9.20
2023-03-25T02:31:02.768Z,9.10
2023-03-25T02:35:28.769Z,9.10
2023-03-25T02:39:30.890Z,9.10
2023-03-25T02:43:24.730Z,9.10
2023-03-25T02:47:11.693Z,9.20
2023-03-25T02:50:58.849Z,9.20
2023-03-25T02:54:45.111Z,9.20
2023-03-25T02:58:30.014Z,9.30
2023-03-25T03:02:12.283Z,9.30
2023-03-25T03:05:58.863Z,9.40
2023-03-25T03:09:47.575Z,9.40
2023-03-25T03:13:29.459Z,9.50
2023-03-25T03:17:38.290Z,9.40
2023-03-25T03:21:39.109Z,9.50
2023-03-25T03:25:40.484Z,9.50
2023-03-25T03:29:32.425Z,9.50
2023-03-25T03:33:47.519Z,9.50
2023-03-25T03:37:39.371Z,9.60
2023-03-25T03:41:27.260Z,9.50
2023-03-25T03:45:19.764Z,9.50
2023-03-25T03:49:04.920Z,9.60
2023-03-25T03:53:00.247Z,9.70
2023-03-25T03:56:47.542Z,9.70
2023-03-25T04:00:36.526Z,9.70
2023-03-25T04:04:34.802Z,9.60
2023-03-25T04:08:29.389Z,9.60
2023-03-25T04:12:25.532Z,9.50
2023-03-25T04:16:08.199Z,9.50
2023-03-25T04:19:53.934Z,9.60
2023-03-25T04:23:37.892Z,9.50
2023-03-25T04:27:19.936Z,9.50
2023-03-25T04:31:07.541Z,9.50
2023-03-25T04:34:49.564Z,9.50
2023-03-25T04:38:31.548Z,9.40
2023-03-25T04:42:13.987Z,9.40
2023-03-25T04:45:57.754Z,9.40
2023-03-25T04:49:39.639Z,9.30
2023-03-25T04:53:22.689Z,9.30
2023-03-25T04:57:04.831Z,9.30
2023-03-25T05:00:50.553Z,9.30
2023-03-25T05:04:33.278Z,9.30
2023-03-25T05:08:15.265Z,9.30
2023-03-25T05:11:57.275Z,9.40
2023-03-25T05:15:39.734Z,9.40
2023-03-25T05:19:21.699Z,9.40
2023-03-25T05:23:04.468Z,9.50
2023-03-25T05:26:46.433Z,9.50
2023-03-25T05:30:32.776Z,9.50
2023-03-25T05:34:17.396Z,9.50
2023-03-25T05:37:59.565Z,9.50
2023-03-25T05:41:41.699Z,9.50
2023-03-25T05:45:23.841Z,9.50
2023-03-25T05:49:05.732Z,9.60
2023-03-25T05:52:49.985Z,9.60
2023-03-25T05:56:32.017Z,9.70
2023-03-25T06:00:19.287Z,9.70
2023-03-25T06:04:02.689Z,9.70
2023-03-25T06:07:47.672Z,9.70
2023-03-25T06:11:29.906Z,9.70
2023-03-25T06:15:14.381Z,9.70
2023-03-25T06:18:59.491Z,9.70
2023-03-25T06:22:44.352Z,9.70
2023-03-25T06:26:26.998Z,9.70
2023-03-25T06:30:14.301Z,9.70
2023-03-25T06:33:56.754Z,9.70
2023-03-25T06:37:38.958Z,9.70
2023-03-25T06:41:21.959Z,9.70
2023-03-25T06:45:05.156Z,9.70
2023-03-25T06:48:47.189Z,9.70
2023-03-25T06:52:29.215Z,9.70
2023-03-25T06:56:11.102Z,9.80
2023-03-25T06:59:52.997Z,9.90
2023-03-25T07:03:36.903Z,10.20
2023-03-25T07:07:19.283Z,10.40
2023-03-25T07:11:07.481Z,10.50
2023-03-25T07:14:57.448Z,10.60
2023-03-25T07:18:39.312Z,10.60
2023-03-25T07:22:21.212Z,10.70
2023-03-25T07:26:03.259Z,10.70
2023-03-25T07:29:45.155Z,10.70
2023-03-25T07:33:27.056Z,10.70
2023-03-25T07:37:09.390Z,10.80
2023-03-25T07:40:51.550Z,10.90
2023-03-25T07:44:33.484Z,11.00
2023-03-25T07:48:16.366Z,11.10
2023-03-25T07:51:58.273Z,11.20
2023-03-25T07:55:40.281Z,11.20
2023-03-25T07:59:22.185Z,11.20
2023-03-25T08:03:04.432Z,11.20
2023-03-25T08:06:46.573Z,11.20
2023-03-25T08:10:30.045Z,11.20
2023-03-25T08:14:12.190Z,11.50
2023-03-25T08:17:54.299Z,11.70
2023-03-25T08:21:36.724Z,11.80
2023-03-25T08:25:18.858Z,11.80
2023-03-25T08:29:02.830Z,11.70
2023-03-25T08:32:54.431Z,11.70
2023-03-25T08:36:39.442Z,11.70
2023-03-25T08:40:21.893Z,11.90
2023-03-25T08:44:03.832Z,12.00
2023-03-25T08:47:46.398Z,12.20
2023-03-25T08:51:28.291Z,12.40
2023-03-25T08:55:12.337Z,12.70
2023-03-25T08:58:54.653Z,13.20
2023-03-25T09:02:36.571Z,13.70
2023-03-25T09:06:18.685Z,14.80
2023-03-25T09:10:00.569Z,16.40
2023-03-25T09:13:42.647Z,17.60
2023-03-25T09:17:24.974Z,17.30
2023-03-25T09:21:07.198Z,16.70
2023-03-25T09:24:49.127Z,16.50
2023-03-25T09:28:31.309Z,16.80
2023-03-25T09:32:14.038Z,17.80
2023-03-25T09:35:56.178Z,18.60
2023-03-25T09:39:38.136Z,19.10
2023-03-25T09:43:41.221Z,18.80
2023-03-25T09:47:25.803Z,18.40
2023-03-25T09:51:13.845Z,18.00
2023-03-25T09:55:00.847Z,17.70
2023-03-25T09:58:54.772Z,17.30
2023-03-25T10:03:18.757Z,17.00
2023-03-25T10:07:19.396Z,16.80
2023-03-25T10:11:15.888Z,18.60
2023-03-25T10:15:16.343Z,20.70
2023-03-25T10:19:17.294Z,20.90
2023-03-25T10:23:15.516Z,20.00
2023-03-25T10:27:24.225Z,19.70
2023-03-25T10:31:11.889Z,18.80
2023-03-25T10:34:56.249Z,18.20
2023-03-25T10:38:39.331Z,17.80
2023-03-25T10:42:30.654Z,17.70
2023-03-25T10:46:47.639Z,19.00
2023-03-25T10:50:29.847Z,21.20
2023-03-25T10:54:13.963Z,22.70
2023-03-25T10:57:57.214Z,23.80
2023-03-25T11:01:41.445Z,24.50
2023-03-25T11:05:27.988Z,24.20
2023-03-25T11:09:28.237Z,24.80
2023-03-25T11:13:15.124Z,25.30
2023-03-25T11:17:05.797Z,25.00
2023-03-25T11:21:14.834Z,24.60
2023-03-25T11:25:03.441Z,25.40
2023-03-25T11:28:55.084Z,26.40
2023-03-25T11:32:39.498Z,27.20
2023-03-25T11:36:30.452Z,27.60
2023-03-25T11:40:18.076Z,27.50
2023-03-25T11:44:00.715Z,27.40
2023-03-25T11:47:42.705Z,26.50
2023-03-25T11:51:29.805Z,26.30
2023-03-25T11:55:37.276Z,26.40
2023-03-25T11:59:33.541Z,26.20
2023-03-25T12:03:20.486Z,25.50
2023-03-25T12:07:09.643Z,25.40
2023-03-25T12:11:14.396Z,25.00
2023-03-25T12:15:18.776Z,24.10
2023-03-25T12:19:21.984Z,23.90
2023-03-25T12:23:23.341Z,23.30
2023-03-25T12:27:18.681Z,22.20
2023-03-25T12:31:27.728Z,21.10
2023-03-25T12:35:38.011Z,20.60
2023-03-25T12:39:42.121Z,20.30
2023-03-25T12:43:42.779Z,20.20
2023-03-25T12:47:27.693Z,19.70
2023-03-25T12:51:18.179Z,19.30
2023-03-25T12:55:09.521Z,19.20
2023-03-25T12:59:20.051Z,19.60
2023-03-25T13:03:30.579Z,19.60
2023-03-25T13:07:18.306Z,19.50
2023-03-25T13:11:23.551Z,19.40
2023-03-25T13:15:37.445Z,19.20
2023-03-25T13:19:27.367Z,18.90
2023-03-25T13:23:14.041Z,18.70
2023-03-25T13:26:58.115Z,18.30
2023-03-25T13:30:42.565Z,18.20
2023-03-25T13:34:43.249Z,18.10
2023-03-25T13:38:42.119Z,17.90
2023-03-25T13:42:33.474Z,17.90
2023-03-25T13:46:21.642Z,17.90
2023-03-25T13:50:22.387Z,17.90
2023-03-25T13:54:24.412Z,17.90
2023-03-25T13:58:25.100Z,18.00
2023-03-25T14:02:19.239Z,17.90
2023-03-25T14:06:22.179Z,17.80
2023-03-25T14:10:13.095Z,17.70
2023-03-25T14:14:10.364Z,17.70
2023-03-25T14:17:54.427Z,17.70
2023-03-25T14:21:39.685Z,17.70
2023-03-25T14:25:28.662Z,17.70
2023-03-25T14:29:24.401Z,17.60
2023-03-25T14:33:10.749Z,17.40
2023-03-25T14:36:52.592Z,17.30
2023-03-25T14:40:54.841Z,17.10
2023-03-25T14:44:49.867Z,17.10
2023-03-25T14:48:37.952Z,16.90
2023-03-25T14:52:33.674Z,16.70
2023-03-25T14:56:25.611Z,16.60
2023-03-25T15:00:17.548Z,16.60
2023-03-25T15:04:14.461Z,16.50
2023-03-25T15:08:17.705Z,16.40
2023-03-25T15:12:05.154Z,16.40
2023-03-25T15:15:49.441Z,16.30
2023-03-25T15:20:05.950Z,16.30
2023-03-25T15:23:49.033Z,16.20
2023-03-25T15:27:50.747Z,16.10
2023-03-25T15:31:56.415Z,16.00
2023-03-25T15:36:06.660Z,15.80
2023-03-25T15:40:12.688Z,15.70
2023-03-25T15:44:14.618Z,15.60
2023-03-25T15:48:24.880Z,15.40
2023-03-25T15:52:25.648Z,15.40
2023-03-25T15:56:12.599Z,15.40
2023-03-25T16:00:00.348Z,15.40
2023-03-25T16:03:43.709Z,15.30
2023-03-25T16:07:30.659Z,15.30
2023-03-25T16:11:21.517Z,15.30
2023-03-25T16:15:07.131Z,15.30
2023-03-25T16:18:49.158Z,15.20
2023-03-25T16:22:34.330Z,15.10
2023-03-25T16:26:16.380Z,14.90
2023-03-25T16:29:58.432Z,14.80
2023-03-25T16:33:41.203Z,14.70
2023-03-25T16:37:25.330Z,14.60
2023-03-25T16:41:13.428Z,14.50
2023-03-25T16:44:55.566Z,14.50
2023-03-25T16:48:41.070Z,14.50
2023-03-25T16:52:26.957Z,14.50
2023-03-25T16:56:09.054Z,14.50
2023-03-25T16:59:53.191Z,14.50
2023-03-25T17:03:43.538Z,14.50
2023-03-25T17:07:29.053Z,14.40
2023-03-25T17:11:11.026Z,14.30
2023-03-25T17:14:58.478Z,14.20
2023-03-25T17:18:40.594Z,14.20
2023-03-25T17:22:39.381Z,14.10
2023-03-25T17:26:24.566Z,14.00
2023-03-25T17:30:19.667Z,13.80
2023-03-25T17:34:12.567Z,13.70
2023-03-25T17:37:56.727Z,13.60
2023-03-25T17:41:39.992Z,13.40
2023-03-25T17:45:24.172Z,13.30
2023-03-25T17:49:17.990Z,13.20
2023-03-25T17:53:00.959Z,13.10
2023-03-25T17:56:43.232Z,13.00
2023-03-25T18:00:25.812Z,12.90
2023-03-25T18:04:07.716Z,12.80
2023-03-25T18:07:49.846Z,12.70
2023-03-25T18:11:31.872Z,12.70
2023-03-25T18:15:14.013Z,12.60
2023-03-25T18:18:56.173Z,12.50
2023-03-25T18:22:38.202Z,12.40
2023-03-25T18:26:20.183Z,12.20
2023-03-25T18:30:25.798Z,12.20
2023-03-25T18:34:07.835Z,11.90
2023-03-25T18:37:49.892Z,11.50
2023-03-25T18:41:31.875Z,11.20
2023-03-25T18:45:13.888Z,10.90
2023-03-25T18:48:56.891Z,10.70
2023-03-25T18:52:38.809Z,10.60
2023-03-25T18:56:20.952Z,10.50
2023-03-25T19:00:05.664Z,10.40
2023-03-25T19:03:50.455Z,10.40
2023-03-25T19:07:33.165Z,10.30
2023-03-25T19:11:21.443Z,10.20
2023-03-25T19:15:04.584Z,10.20
2023-03-25T19:18:47.567Z,10.20
2023-03-25T19:22:29.567Z,10.10
2023-03-25T19:26:12.264Z,10.10
2023-03-25T19:29:54.514Z,10.10
2023-03-25T19:33:36.530Z,10.10
2023-03-25T19:37:18.790Z,10.10
2023-03-25T19:41:06.925Z,10.00
2023-03-25T19:44:48.814Z,10.00
2023-03-25T19:48:31.214Z,9.90
2023-03-25T19:52:13.179Z,9.90
2023-03-25T19:55:56.884Z,9.90
2023-03-25T19:59:39.270Z,9.80
2023-03-25T20:03:24.219Z,9.80
2023-03-25T20:07:06.263Z,9.70
2023-03-25T20:10:48.360Z,9.70
2023-03-25T20:14:30.324Z,9.70
2023-03-25T20:18:12.845Z,9.60
2023-03-25T20:21:54.733Z,9.70
2023-03-25T20:25:36.738Z,9.60
2023-03-25T20:29:19.708Z,9.60
2023-03-25T20:33:01.689Z,9.50
2023-03-25T20:36:43.652Z,9.50
2023-03-25T20:40:37.386Z,9.50
2023-03-25T20:44:23.780Z,9.40
2023-03-25T20:48:06.902Z,9.40
2023-03-25T20:51:50.925Z,9.50
2023-03-25T20:55:33.143Z,9.40
2023-03-25T20:59:16.797Z,9.30
2023-03-25T21:02:58.763Z,9.30
2023-03-25T21:06:42.096Z,9.20
2023-03-25T21:10:24.103Z,9.20
2023-03-25T21:14:06.345Z,9.20
2023-03-25T21:17:48.407Z,9.20
2023-03-25T21:21:31.431Z,9.20
2023-03-25T21:25:15.088Z,9.10
2023-03-25T21:28:57.977Z,9.10
2023-03-25T21:32:40.527Z,9.10
2023-03-25T21:36:25.665Z,9.20
2023-03-25T21:40:10.911Z,9.20
2023-03-25T21:43:53.653Z,9.20
2023-03-25T21:47:36.462Z,9.30
2023-03-25T21:51:20.337Z,9.40
2023-03-25T21:55:02.277Z,9.30
2023-03-25T21:58:44.864Z,9.40
2023-03-25T22:02:29.295Z,9.40
2023-03-25T22:06:14.987Z,9.40
2023-03-25T22:09:56.889Z,9.50
2023-03-25T22:13:39.775Z,9.60
2023-03-25T22:17:21.762Z,9.60
2023-03-25T22:21:07.037Z,9.70
2023-03-25T22:24:50.558Z,9.70
2023-03-25T22:28:32.505Z,9.60
2023-03-25T22:32:14.446Z,9.60
2023-03-25T22:36:04.210Z,9.50
2023-03-25T22:39:46.263Z,9.50
2023-03-25T22:43:28.146Z,9.50
2023-03-25T22:47:10.107Z,9.40
2023-03-25T22:50:52.053Z,9.30
2023-03-25T22:54:34.113Z,9.30
2023-03-25T22:58:16.059Z,9.20
2023-03-25T23:01:58.007Z,9.20
2023-03-25T23:05:39.935Z,9.20
2023-03-25T23:09:41.597Z,9.20
2023-03-25T23:13:24.082Z,9.20
2023-03-25T23:17:06.273Z,9.20
2023-03-25T23:20:49.127Z,9.10
2023-03-25T23:24:34.060Z,8.90
2023-03-25T23:28:18.940Z,8.80
2023-03-25T23:32:01.113Z,8.70
2023-03-25T23:35:43.051Z,8.70
2023-03-25T23:39:27.736Z,8.50
2023-03-25T23:43:09.612Z,8.50
2023-03-25T23:46:51.599Z,8.40
2023-03-25T23:50:33.533Z,8.30
2023-03-25T23:54:16.377Z,8.30
2023-03-25T23:57:58.349Z,8.20
